Time;durP1;ratioP1;P1;durP2;ratioP2;P2;SDS_P1;SDS_P2;PMS_P1;PMS_P2;Temp;Humidity;BMP_temperature;BMP_pressure;BME280_temperature;BME280_humidity;BME280_pressure;Samples;Min_cycle;Max_cycle;Signal;HPM_P1;HPM_P2
2021/03/03 00:01:35;;;;;;;29.83;20.65;;;7.60;80.30;;;;;;4796464;29;20538;-67
2021/03/03 00:04:01;;;;;;;28.45;16.65;;;7.50;80.40;;;;;;4795285;29;20051;-68
2021/03/03 00:06:27;;;;;;;26.20;19.27;;;7.50;80.40;;;;;;4794976;29;20094;-67
2021/03/03 00:08:52;;;;;;;28.38;18.02;;;7.50;80.50;;;;;;4796677;29;20080;-68
2021/03/03 00:11:18;;;;;;;27.92;18.58;;;7.50;80.60;;;;;;4796297;29;20404;-68
2021/03/03 00:13:44;;;;;;;27.85;19.85;;;7.40;80.50;;;;;;4795320;29;20403;-68
2021/03/03 00:16:10;;;;;;;26.67;19.15;;;7.40;80.70;;;;;;4788582;29;20078;-68
2021/03/03 00:18:35;;;;;;;25.98;17.83;;;7.30;80.80;;;;;;4795636;29;20047;-68
2021/03/03 00:21:01;;;;;;;27.23;18.90;;;7.30;80.90;;;;;;4796938;29;20069;-68
2021/03/03 00:23:27;;;;;;;25.85;18.13;;;7.30;81.00;;;;;;4796003;29;20058;-68
2021/03/03 00:25:53;;;;;;;28.02;18.00;;;7.20;81.10;;;;;;4795825;29;20107;-68
2021/03/03 00:28:19;;;;;;;25.48;17.83;;;7.20;81.20;;;;;;4796160;29;20067;-68
2021/03/03 00:30:44;;;;;;;29.15;19.00;;;7.20;81.30;;;;;;4795306;29;20100;-68
2021/03/03 00:33:10;;;;;;;25.10;17.38;;;7.10;81.40;;;;;;4795832;29;20046;-68
2021/03/03 00:35:36;;;;;;;23.88;16.67;;;7.10;81.50;;;;;;4794282;29;20051;-68
2021/03/03 00:38:02;;;;;;;29.05;19.00;;;7.10;81.70;;;;;;4798065;29;20133;-68
2021/03/03 00:40:28;;;;;;;28.95;18.27;;;7.20;82.70;;;;;;4800114;29;20045;-67
2021/03/03 00:42:54;;;;;;;28.95;18.88;;;7.30;81.80;;;;;;4799639;29;20124;-68
2021/03/03 00:45:20;;;;;;;26.00;17.85;;;7.20;81.70;;;;;;4799371;29;20051;-67
2021/03/03 00:47:45;;;;;;;24.08;17.40;;;7.20;81.70;;;;;;4799427;29;20050;-68
2021/03/03 00:50:12;;;;;;;26.65;18.65;;;7.10;81.80;;;;;;4800019;29;20042;-68
2021/03/03 00:52:37;;;;;;;28.70;18.80;;;7.00;81.90;;;;;;4792159;29;20043;-68
2021/03/03 00:55:04;;;;;;;25.67;18.05;;;7.00;82.10;;;;;;4798464;29;20054;-68
2021/03/03 00:57:30;;;;;;;27.15;18.23;;;6.90;82.20;;;;;;4799274;29;20035;-68
2021/03/03 00:59:56;;;;;;;26.08;18.98;;;6.90;82.40;;;;;;4799714;29;20050;-68
2021/03/03 01:02:22;;;;;;;29.20;19.33;;;6.90;82.60;;;;;;4799424;29;20039;-68
2021/03/03 01:04:47;;;;;;;25.75;19.10;;;6.90;82.70;;;;;;4799108;29;20054;-68
2021/03/03 01:07:13;;;;;;;31.90;18.67;;;6.80;82.80;;;;;;4799368;29;20058;-68
2021/03/03 01:09:39;;;;;;;31.80;20.27;;;6.80;82.90;;;;;;4799665;29;20039;-68
2021/03/03 01:12:05;;;;;;;28.52;18.38;;;6.80;83.10;;;;;;4799900;29;20035;-68
2021/03/03 01:14:32;;;;;;;30.30;19.73;;;6.80;83.30;;;;;;4799349;29;20125;-68
2021/03/03 01:16:58;;;;;;;28.30;19.92;;;6.70;83.20;;;;;;4797926;29;20049;-68
2021/03/03 01:19:23;;;;;;;29.48;20.52;;;6.70;83.30;;;;;;4799425;29;20047;-68
2021/03/03 01:21:49;;;;;;;28.95;20.08;;;6.70;83.30;;;;;;4813155;29;20384;-67
2021/03/03 01:24:15;;;;;;;28.50;19.35;;;6.60;83.50;;;;;;4799318;29;20499;-67
2021/03/03 01:26:41;;;;;;;23.90;17.48;;;6.60;83.60;;;;;;4799002;29;20475;-67
2021/03/03 01:29:07;;;;;;;26.95;18.13;;;6.60;84.10;;;;;;4799207;29;20034;-67
2021/03/03 01:31:34;;;;;;;27.83;20.25;;;6.50;83.60;;;;;;4798883;29;20038;-67
2021/03/03 01:34:00;;;;;;;28.02;19.40;;;6.50;83.80;;;;;;4794345;29;20460;-67
2021/03/03 01:36:26;;;;;;;30.48;19.52;;;6.50;84.00;;;;;;4797903;29;20655;-67
2021/03/03 01:38:52;;;;;;;27.50;19.27;;;6.50;84.20;;;;;;4799316;29;20047;-67
2021/03/03 01:41:18;;;;;;;27.50;19.77;;;6.50;84.30;;;;;;4799087;29;20510;-67
2021/03/03 01:43:43;;;;;;;26.95;19.20;;;6.50;84.30;;;;;;4798910;29;20042;-67
2021/03/03 01:46:09;;;;;;;27.00;18.83;;;6.50;84.20;;;;;;4777602;29;20047;-67
2021/03/03 01:48:36;;;;;;;28.45;19.92;;;6.50;84.30;;;;;;4798260;29;20034;-67
2021/03/03 01:51:02;;;;;;;28.77;19.92;;;6.40;84.30;;;;;;4798569;29;20049;-67
2021/03/03 01:53:29;;;;;;;29.52;19.77;;;6.50;84.40;;;;;;4798847;29;20049;-67
2021/03/03 01:55:55;;;;;;;30.88;19.70;;;6.40;84.30;;;;;;4798621;29;20076;-67
2021/03/03 01:58:21;;;;;;;30.00;19.33;;;6.30;84.40;;;;;;4796706;29;20472;-67
2021/03/03 02:00:47;;;;;;;29.27;19.95;;;6.30;84.60;;;;;;4798182;29;20050;-67
2021/03/03 02:03:13;;;;;;;27.73;19.10;;;6.30;84.70;;;;;;4796471;29;20066;-67
2021/03/03 02:05:39;;;;;;;31.35;20.25;;;6.20;84.60;;;;;;4798341;29;20043;-67
2021/03/03 02:08:14;;;;;;;30.75;19.52;;;6.20;84.80;;;;;;4797346;29;20039;-67
2021/03/03 02:10:42;;;;;;;25.27;18.33;;;6.10;84.60;;;;;;4797822;29;20042;-67
2021/03/03 02:13:17;;;;;;;30.90;18.40;;;6.10;84.80;;;;;;4798554;29;20094;-67
2021/03/03 02:15:46;;;;;;;33.20;19.38;;;6.10;84.90;;;;;;4797320;29;20050;-67
2021/03/03 02:18:12;;;;;;;30.90;20.23;;;6.00;84.80;;;;;;4792772;29;20058;-67
2021/03/03 02:21:01;;;;;;;26.73;17.17;;;6.20;85.10;;;;;;4797917;29;20047;-67
2021/03/03 02:23:57;;;;;;;20.88;14.30;;;6.20;84.80;;;;;;4798249;29;20096;-67
2021/03/03 02:26:33;;;;;;;22.15;15.05;;;6.30;85.20;;;;;;4798311;29;20046;-67
2021/03/03 02:29:04;;;;;;;26.25;17.90;;;6.70;86.20;;;;;;4798004;29;20038;-67
2021/03/03 02:31:32;;;;;;;33.72;21.27;;;7.20;85.00;;;;;;4796865;29;20035;-67
2021/03/03 02:34:00;;;;;;;28.88;20.17;;;7.40;83.10;;;;;;4797688;29;20046;-67
2021/03/03 02:36:27;;;;;;;27.73;18.35;;;7.30;82.60;;;;;;4796820;29;20043;-67
2021/03/03 02:38:53;;;;;;;27.80;19.63;;;7.10;82.60;;;;;;4795385;29;20047;-67
2021/03/03 02:41:19;;;;;;;31.85;18.27;;;7.00;82.90;;;;;;4798297;29;20054;-67
2021/03/03 02:43:46;;;;;;;25.98;18.00;;;6.90;83.40;;;;;;4797181;29;20130;-67
2021/03/03 02:46:13;;;;;;;30.38;18.67;;;6.90;83.10;;;;;;4797266;29;20047;-67
2021/03/03 02:48:39;;;;;;;27.58;17.80;;;6.80;82.80;;;;;;4797525;29;20058;-63
2021/03/03 02:51:07;;;;;;;29.13;19.70;;;6.70;82.80;;;;;;4797119;29;20047;-64
2021/03/03 02:53:32;;;;;;;30.63;19.23;;;6.50;82.90;;;;;;4796734;29;20035;-63
2021/03/03 02:55:58;;;;;;;31.23;18.17;;;6.30;83.20;;;;;;4797506;29;20566;-64
2021/03/03 02:58:24;;;;;;;29.63;17.77;;;6.20;83.50;;;;;;4797374;29;20043;-64
2021/03/03 03:00:54;;;;;;;29.00;17.15;;;6.10;83.70;;;;;;4791599;29;20050;-64
2021/03/03 03:03:26;;;;;;;26.03;18.07;;;6.00;83.90;;;;;;4796723;29;20070;-63
2021/03/03 03:06:05;;;;;;;26.90;17.67;;;5.90;84.00;;;;;;4797799;29;20118;-63
2021/03/03 03:08:32;;;;;;;27.08;17.20;;;5.80;84.30;;;;;;4797416;29;20043;-63
2021/03/03 03:11:07;;;;;;;27.73;18.73;;;5.70;84.30;;;;;;4796817;29;20051;-63
2021/03/03 03:13:35;;;;;;;28.73;17.60;;;5.60;84.60;;;;;;4792204;29;20050;-63
2021/03/03 03:16:02;;;;;;;31.45;17.27;;;5.50;84.70;;;;;;4796758;29;20050;-63
2021/03/03 03:18:33;;;;;;;30.27;18.98;;;5.50;84.80;;;;;;4796658;29;20043;-63
2021/03/03 03:21:00;;;;;;;29.80;18.40;;;5.50;84.90;;;;;;4796651;29;20091;-64
2021/03/03 03:23:27;;;;;;;29.92;17.60;;;5.40;84.90;;;;;;4797440;29;20046;-63
2021/03/03 03:25:54;;;;;;;34.67;19.30;;;5.40;85.10;;;;;;4796624;29;20491;-63
2021/03/03 03:28:20;;;;;;;32.53;18.23;;;5.30;85.20;;;;;;4796744;29;20058;-64
2021/03/03 03:30:47;;;;;;;30.58;19.00;;;5.30;85.20;;;;;;4796949;29;20043;-64
2021/03/03 03:33:13;;;;;;;31.40;19.17;;;5.30;85.30;;;;;;4796675;29;20499;-63
2021/03/03 03:35:40;;;;;;;30.10;18.67;;;5.30;85.30;;;;;;4795825;29;20043;-63
2021/03/03 03:38:06;;;;;;;32.30;18.42;;;5.30;85.50;;;;;;4796687;29;20103;-63
2021/03/03 03:40:32;;;;;;;30.00;17.63;;;5.30;86.00;;;;;;4796720;29;20077;-64
2021/03/03 03:42:59;;;;;;;33.08;19.88;;;5.30;85.60;;;;;;4796990;29;20042;-63
2021/03/03 03:45:27;;;;;;;33.17;19.08;;;5.30;85.50;;;;;;4796681;29;20472;-63
2021/03/03 03:47:53;;;;;;;27.60;18.33;;;5.30;85.50;;;;;;4796428;29;20125;-63
2021/03/03 03:50:21;;;;;;;31.42;18.63;;;5.30;85.50;;;;;;4796030;29;20038;-63
2021/03/03 03:52:55;;;;;;;31.58;18.02;;;5.30;85.80;;;;;;4797096;29;20667;-63
2021/03/03 03:55:32;;;;;;;32.85;19.02;;;5.30;85.70;;;;;;4796740;29;20495;-64
2021/03/03 03:57:59;;;;;;;28.73;18.05;;;5.30;85.80;;;;;;4797146;29;20043;-63
2021/03/03 04:00:26;;;;;;;30.58;19.27;;;5.30;85.70;;;;;;4797008;29;20046;-63
2021/03/03 04:02:52;;;;;;;27.80;18.05;;;5.40;85.70;;;;;;4796873;29;20053;-63
2021/03/03 04:05:18;;;;;;;29.80;18.10;;;5.40;85.60;;;;;;4796347;29;20059;-63
2021/03/03 04:07:45;;;;;;;31.55;17.75;;;5.40;85.60;;;;;;4809819;29;20035;-63
2021/03/03 04:10:14;;;;;;;32.15;17.80;;;5.40;85.70;;;;;;4796965;29;20047;-63
2021/03/03 04:12:40;;;;;;;31.02;19.40;;;5.50;85.60;;;;;;4798108;29;20188;-63
2021/03/03 04:15:07;;;;;;;27.65;17.60;;;5.40;85.50;;;;;;4800481;29;20522;-63
2021/03/03 04:17:34;;;;;;;35.38;18.27;;;5.40;85.50;;;;;;4800076;29;20097;-63
2021/03/03 04:20:00;;;;;;;29.25;18.27;;;5.40;85.50;;;;;;4800499;29;20067;-63
2021/03/03 04:22:26;;;;;;;30.13;19.00;;;5.40;85.60;;;;;;4798730;29;20134;-63
2021/03/03 04:24:51;;;;;;;30.55;17.88;;;5.40;85.50;;;;;;4799056;29;20357;-63
2021/03/03 04:27:17;;;;;;;29.02;18.58;;;5.40;85.50;;;;;;4800355;29;20134;-63
2021/03/03 04:29:43;;;;;;;34.47;18.98;;;5.30;85.50;;;;;;4799667;29;20446;-63
2021/03/03 04:32:09;;;;;;;29.83;17.88;;;5.30;85.70;;;;;;4800749;29;20492;-63
2021/03/03 04:34:34;;;;;;;30.00;17.10;;;5.30;85.60;;;;;;4799336;29;20144;-63
2021/03/03 04:37:00;;;;;;;30.05;18.10;;;5.30;85.60;;;;;;4799547;29;20126;-63
2021/03/03 04:39:26;;;;;;;32.33;19.35;;;5.30;85.50;;;;;;4795001;29;20046;-63
2021/03/03 04:41:52;;;;;;;26.35;17.40;;;5.40;85.40;;;;;;4799908;29;20054;-63
2021/03/03 04:44:18;;;;;;;28.70;17.63;;;5.40;85.40;;;;;;4798953;29;20046;-64
2021/03/03 04:46:44;;;;;;;26.27;17.33;;;5.40;85.40;;;;;;4793734;29;20415;-64
2021/03/03 04:49:10;;;;;;;29.67;16.70;;;5.40;85.20;;;;;;4799322;29;20062;-63
2021/03/03 04:51:36;;;;;;;30.45;18.70;;;5.30;84.80;;;;;;4799741;29;20511;-63
2021/03/03 04:54:03;;;;;;;29.65;17.98;;;5.30;85.00;;;;;;4798834;29;20113;-63
2021/03/03 04:56:29;;;;;;;28.98;18.00;;;5.30;85.00;;;;;;4799721;29;20045;-63
2021/03/03 04:58:55;;;;;;;30.17;18.58;;;5.20;84.90;;;;;;4799290;29;20043;-63
2021/03/03 05:01:21;;;;;;;31.17;18.05;;;5.20;85.00;;;;;;4797967;29;20046;-63
2021/03/03 05:03:47;;;;;;;26.95;17.27;;;5.20;85.20;;;;;;4797565;29;20062;-63
2021/03/03 05:06:13;;;;;;;26.92;17.48;;;5.20;85.50;;;;;;4798404;29;20069;-63
2021/03/03 05:08:38;;;;;;;29.17;17.63;;;5.20;85.30;;;;;;4798655;29;20480;-62
2021/03/03 05:11:04;;;;;;;27.63;17.10;;;5.20;85.10;;;;;;4798625;29;20059;-62
2021/03/03 05:13:31;;;;;;;30.52;17.92;;;5.10;85.60;;;;;;4794941;29;20042;-62
2021/03/03 05:15:58;;;;;;;29.65;18.27;;;5.10;85.20;;;;;;4798836;29;20046;-62
2021/03/03 05:18:24;;;;;;;30.30;18.23;;;5.10;85.30;;;;;;4798282;29;20594;-63
2021/03/03 05:20:50;;;;;;;32.97;17.77;;;5.10;85.70;;;;;;4799434;29;20053;-63
2021/03/03 05:23:26;;;;;;;28.73;18.23;;;5.10;85.40;;;;;;4799211;29;20129;-62
2021/03/03 05:25:52;;;;;;;32.35;18.23;;;5.10;85.30;;;;;;4798319;29;20051;-62
2021/03/03 05:28:18;;;;;;;26.25;17.08;;;5.00;85.20;;;;;;4798258;29;20049;-62
2021/03/03 05:30:43;;;;;;;28.75;17.08;;;5.00;85.30;;;;;;4794173;29;20054;-62
2021/03/03 05:33:09;;;;;;;24.52;16.88;;;5.00;85.40;;;;;;4799101;29;20038;-62
2021/03/03 05:35:35;;;;;;;28.65;17.05;;;5.00;85.40;;;;;;4797801;29;20043;-62
2021/03/03 05:38:01;;;;;;;33.38;17.95;;;4.90;85.30;;;;;;4798821;29;20050;-62
2021/03/03 05:40:26;;;;;;;28.95;17.48;;;4.90;85.40;;;;;;4797556;29;20042;-62
2021/03/03 05:42:54;;;;;;;28.23;16.88;;;4.90;85.30;;;;;;4798923;29;20127;-63
2021/03/03 05:45:20;;;;;;;30.88;18.20;;;4.90;85.40;;;;;;4798293;29;20496;-62
2021/03/03 05:47:48;;;;;;;28.75;16.95;;;4.90;85.40;;;;;;4798988;29;20182;-62
2021/03/03 05:50:19;;;;;;;33.65;18.13;;;4.90;85.40;;;;;;4796923;29;20065;-62
2021/03/03 05:52:44;;;;;;;33.92;18.88;;;4.90;85.50;;;;;;4799022;29;20047;-62
2021/03/03 05:55:11;;;;;;;32.78;17.83;;;5.00;85.30;;;;;;4797733;29;20106;-62
2021/03/03 05:57:37;;;;;;;28.90;17.52;;;5.00;85.20;;;;;;4798416;29;20045;-62
2021/03/03 06:00:07;;;;;;;24.65;16.33;;;5.00;85.00;;;;;;4797780;29;20042;-63
2021/03/03 06:02:36;;;;;;;29.48;17.70;;;5.00;85.10;;;;;;4798070;29;20098;-63
2021/03/03 06:05:02;;;;;;;31.88;17.23;;;5.00;85.10;;;;;;4797319;29;22301;-62
2021/03/03 06:07:29;;;;;;;30.98;17.60;;;5.00;85.00;;;;;;4793333;29;20046;-63
2021/03/03 06:09:57;;;;;;;30.38;17.98;;;5.00;85.00;;;;;;4797263;29;21911;-63
2021/03/03 06:12:22;;;;;;;27.95;18.25;;;4.90;84.80;;;;;;4796875;29;20039;-63
2021/03/03 06:14:48;;;;;;;28.30;18.40;;;4.90;84.90;;;;;;4797485;29;20077;-63
2021/03/03 06:17:14;;;;;;;26.67;16.80;;;4.90;84.90;;;;;;4797090;29;20453;-63
2021/03/03 06:19:40;;;;;;;28.05;17.90;;;4.90;84.90;;;;;;4797559;29;20047;-63
2021/03/03 06:22:27;;;;;;;28.48;18.05;;;4.90;84.80;;;;;;4798185;29;20047;-63
2021/03/03 06:24:54;;;;;;;34.55;17.52;;;4.90;84.80;;;;;;4796890;29;20124;-66
2021/03/03 06:27:24;;;;;;;27.25;15.98;;;5.00;84.70;;;;;;4797776;29;20101;-63
2021/03/03 06:30:09;;;;;;;32.35;19.05;;;4.90;84.60;;;;;;4796770;29;20046;-64
2021/03/03 06:32:55;;;;;;;33.25;19.48;;;4.90;84.50;;;;;;4797428;29;20051;-63
2021/03/03 06:35:31;;;;;;;29.48;17.75;;;4.90;84.60;;;;;;4797423;29;20054;-63
2021/03/03 06:37:57;;;;;;;31.60;17.63;;;4.90;84.70;;;;;;4797941;29;20038;-63
2021/03/03 06:40:23;;;;;;;27.02;18.25;;;4.90;84.70;;;;;;4797681;29;20041;-63
2021/03/03 06:42:49;;;;;;;29.05;17.20;;;4.80;84.50;;;;;;4797440;29;20491;-63
2021/03/03 06:45:26;;;;;;;27.50;16.67;;;4.80;84.60;;;;;;4797465;29;20066;-62
2021/03/03 06:47:52;;;;;;;26.45;14.82;;;4.90;84.60;;;;;;4797852;29;20043;-63
2021/03/03 06:50:19;;;;;;;27.60;16.67;;;5.00;84.70;;;;;;4797595;29;20047;-63
2021/03/03 06:52:45;;;;;;;26.15;15.20;;;5.10;84.50;;;;;;4796359;29;20058;-64
2021/03/03 06:55:12;;;;;;;23.73;15.10;;;5.30;84.20;;;;;;4796254;29;20507;-63
2021/03/03 06:57:37;;;;;;;24.33;14.75;;;5.40;83.90;;;;;;4797191;29;20114;-62
2021/03/03 07:00:06;;;;;;;21.02;14.82;;;5.50;83.40;;;;;;4791756;29;20050;-63
2021/03/03 07:02:32;;;;;;;23.33;15.10;;;5.60;83.20;;;;;;4796728;29;20045;-63
2021/03/03 07:04:59;;;;;;;19.90;13.68;;;5.60;82.80;;;;;;4796396;29;20063;-63
2021/03/03 07:07:25;;;;;;;21.35;14.55;;;5.70;82.70;;;;;;4797430;29;20522;-63
2021/03/03 07:09:59;;;;;;;20.95;14.38;;;5.70;82.30;;;;;;4795401;29;20436;-62
2021/03/03 07:12:33;;;;;;;21.85;14.57;;;5.80;82.20;;;;;;4796674;29;20039;-62
2021/03/03 07:15:06;;;;;;;22.67;15.13;;;5.90;82.30;;;;;;4796396;29;20522;-63
2021/03/03 07:17:42;;;;;;;;;;;6.00;81.60;;;;;;4796611;29;20035;-62
2021/03/03 07:20:11;;;;;;;20.45;14.30;;;6.10;82.00;;;;;;4796233;29;19933;-63
2021/03/03 07:22:39;;;;;;;22.23;15.60;;;6.40;81.80;;;;;;4795972;29;20381;-63
2021/03/03 07:25:13;;;;;;;20.00;14.52;;;6.60;80.70;;;;;;4791680;29;20051;-70
2021/03/03 07:27:40;;;;;;;22.50;14.65;;;6.80;79.90;;;;;;4796628;29;20070;-64
2021/03/03 07:30:21;;;;;;;23.45;15.45;;;6.90;79.50;;;;;;4795693;29;20062;-64
2021/03/03 07:32:47;;;;;;;40.78;17.33;;;7.20;78.90;;;;;;4795905;29;20457;-65
2021/03/03 07:35:14;;;;;;;28.92;15.77;;;7.10;78.20;;;;;;4795079;29;20109;-65
2021/03/03 07:37:46;;;;;;;24.30;15.80;;;7.20;77.90;;;;;;4796799;29;20403;-65
2021/03/03 07:40:15;;;;;;;21.77;15.98;;;7.20;77.80;;;;;;4796404;29;20047;-65
2021/03/03 07:42:45;;;;;;;22.67;15.63;;;7.30;77.80;;;;;;4795270;29;20047;-65
2021/03/03 07:45:13;;;;;;;21.52;15.25;;;7.50;77.50;;;;;;4790588;29;20128;-65
2021/03/03 07:47:41;;;;;;;25.27;14.32;;;7.70;77.00;;;;;;4791291;29;20039;-64
2021/03/03 07:50:18;;;;;;;22.75;15.52;;;8.00;76.50;;;;;;4793473;29;20057;-65
2021/03/03 07:53:02;;;;;;;24.08;15.80;;;8.20;75.50;;;;;;4796888;29;20391;-65
2021/03/03 07:55:29;;;;;;;20.65;14.98;;;8.50;75.50;;;;;;4793794;29;20070;-65
2021/03/03 07:57:59;;;;;;;25.00;14.70;;;8.70;74.90;;;;;;4794795;29;20066;-65
2021/03/03 08:00:25;;;;;;;24.67;15.70;;;8.80;74.30;;;;;;4795400;29;20042;-65
2021/03/03 08:02:54;;;;;;;23.95;15.05;;;9.00;74.00;;;;;;4807204;29;20050;-65
2021/03/03 08:05:30;;;;;;;22.63;15.18;;;9.30;73.80;;;;;;4795853;29;20051;-65
2021/03/03 08:08:17;;;;;;;22.52;15.18;;;9.50;73.40;;;;;;4794375;29;20153;-64
2021/03/03 08:10:44;;;;;;;24.52;17.55;;;9.80;72.90;;;;;;4793261;29;20051;-65
2021/03/03 08:13:12;;;;;;;22.42;16.77;;;10.00;72.60;;;;;;4790003;29;20054;-69
2021/03/03 08:15:46;;;;;;;22.55;15.65;;;10.30;71.80;;;;;;4796471;29;20046;-65
2021/03/03 08:18:15;;;;;;;23.35;16.45;;;10.50;71.60;;;;;;4795237;29;20211;-72
2021/03/03 08:20:42;;;;;;;20.63;16.05;;;10.60;71.10;;;;;;4795676;29;20345;-71
2021/03/03 08:23:08;;;;;;;23.75;16.23;;;10.80;70.70;;;;;;4796240;29;20046;-69
2021/03/03 08:25:44;;;;;;;24.90;16.95;;;10.80;70.40;;;;;;4792014;29;20078;-71
2021/03/03 08:28:26;;;;;;;25.25;17.15;;;10.80;69.90;;;;;;4810485;29;20096;-69
2021/03/03 08:31:14;;;;;;;29.10;18.30;;;10.80;70.00;;;;;;4795608;29;20049;-67
2021/03/03 08:33:50;;;;;;;21.92;16.48;;;10.80;69.90;;;;;;4796070;29;20407;-71
2021/03/03 08:36:21;;;;;;;27.00;17.42;;;10.90;70.20;;;;;;4794901;29;20047;-70
2021/03/03 08:38:56;;;;;;;24.90;16.88;;;11.00;70.10;;;;;;4795959;29;20381;-73
2021/03/03 08:41:25;;;;;;;24.27;17.00;;;11.20;70.10;;;;;;4795725;29;20043;-71
2021/03/03 08:44:12;;;;;;;27.95;18.23;;;11.30;69.70;;;;;;4795453;29;20057;-72
2021/03/03 08:46:41;;;;;;;28.10;19.05;;;11.30;69.50;;;;;;4796921;29;20047;-73
2021/03/03 08:49:07;;;;;;;25.88;18.95;;;11.40;69.60;;;;;;4796272;29;20771;-71
2021/03/03 08:51:41;;;;;;;31.00;19.05;;;11.40;69.30;;;;;;4795761;29;20039;-71
2021/03/03 08:54:12;;;;;;;27.48;19.23;;;11.50;69.20;;;;;;4796173;29;20043;-71
2021/03/03 08:56:53;;;;;;;28.52;20.58;;;11.40;69.20;;;;;;4794449;29;20035;-71
2021/03/03 08:59:28;;;;;;;27.70;18.83;;;11.40;69.30;;;;;;4797503;29;20043;-72
2021/03/03 09:02:05;;;;;;;24.63;18.25;;;11.40;69.40;;;;;;4800564;29;20396;-74
2021/03/03 09:04:54;;;;;;;28.52;19.83;;;11.30;69.50;;;;;;4801070;29;20051;-75
2021/03/03 09:07:26;;;;;;;31.98;19.88;;;11.30;69.80;;;;;;4799645;29;20054;-74
2021/03/03 09:10:06;;;;;;;31.60;21.38;;;11.20;70.00;;;;;;4801150;29;20139;-76
2021/03/03 09:12:38;;;;;;;29.85;21.05;;;11.10;70.20;;;;;;4801472;29;20039;-76
2021/03/03 09:15:06;;;;;;;32.17;22.92;;;11.10;70.50;;;;;;4797875;29;20063;-76
2021/03/03 09:17:34;;;;;;;35.83;22.98;;;11.00;70.20;;;;;;4799517;29;20151;-76
2021/03/03 09:20:18;;;;;;;37.78;21.00;;;10.90;70.20;;;;;;4798491;29;20099;-76
2021/03/03 09:22:46;;;;;;;27.05;18.65;;;10.90;70.30;;;;;;4799018;29;20146;-68
2021/03/03 09:25:15;;;;;;;31.15;20.60;;;10.80;70.50;;;;;;4798879;29;20047;-69
2021/03/03 09:27:50;;;;;;;34.05;21.98;;;10.80;70.70;;;;;;4799220;29;20049;-70
2021/03/03 09:30:18;;;;;;;34.03;23.88;;;10.70;70.60;;;;;;4798791;29;20436;-69
2021/03/03 09:32:45;;;;;;;30.23;21.35;;;10.70;71.10;;;;;;4798852;29;20050;-70
2021/03/03 09:35:14;;;;;;;32.78;21.10;;;10.70;71.40;;;;;;4797841;29;20043;-70
2021/03/03 09:37:47;;;;;;;27.42;22.08;;;10.80;71.60;;;;;;4796239;29;20512;-69
2021/03/03 09:40:17;;;;;;;30.50;21.08;;;11.00;71.90;;;;;;4793231;29;20047;-69
2021/03/03 09:42:47;;;;;;;31.35;22.05;;;11.30;71.80;;;;;;4798464;29;20087;-69
2021/03/03 09:45:18;;;;;;;28.35;20.85;;;11.40;71.30;;;;;;4796926;29;20112;-68
2021/03/03 09:47:44;;;;;;;30.17;22.83;;;11.60;71.00;;;;;;4798105;29;20491;-66
2021/03/03 09:50:13;;;;;;;27.83;21.13;;;11.60;70.70;;;;;;4797396;29;20047;-68
2021/03/03 09:52:49;;;;;;;29.45;22.13;;;11.70;70.80;;;;;;4798041;29;20035;-68
2021/03/03 09:55:17;;;;;;;17.83;12.65;;;11.80;70.50;;;;;;4810062;29;20046;-72
2021/03/03 09:57:54;;;;;;;18.30;11.38;;;12.10;74.00;;;;;;4793004;29;20078;-72
2021/03/03 10:00:25;;;;;;;23.15;15.18;;;12.70;75.80;;;;;;4797663;29;20043;-74
2021/03/03 10:02:57;;;;;;;19.67;12.23;;;13.40;74.50;;;;;;4798148;29;20051;-74
2021/03/03 10:05:26;;;;;;;21.08;13.00;;;13.90;73.50;;;;;;4792739;29;20077;-74
2021/03/03 10:07:55;;;;;;;27.88;16.65;;;14.30;71.80;;;;;;4791975;29;20096;-74
2021/03/03 10:10:24;;;;;;;22.88;14.90;;;14.70;69.90;;;;;;4796869;29;20054;-73
2021/03/03 10:12:51;;;;;;;20.55;13.98;;;15.00;69.00;;;;;;4795998;29;20039;-73
2021/03/03 10:15:20;;;;;;;23.70;17.20;;;15.20;68.10;;;;;;4798089;29;20054;-74
2021/03/03 10:17:52;;;;;;;21.90;18.70;;;15.40;66.80;;;;;;4794923;29;20043;-73
2021/03/03 10:20:48;;;;;;;22.63;16.73;;;15.50;65.60;;;;;;4798691;29;20047;-74
2021/03/03 10:23:16;;;;;;;19.25;15.48;;;15.50;65.90;;;;;;4797263;29;20085;-74
2021/03/03 10:25:47;;;;;;;25.27;18.10;;;15.60;65.10;;;;;;4796155;29;20630;-73
2021/03/03 10:28:16;;;;;;;18.65;15.55;;;15.70;64.20;;;;;;4796340;29;20047;-73
2021/03/03 10:30:46;;;;;;;18.30;12.43;;;15.60;63.90;;;;;;4797331;29;20047;-71
2021/03/03 10:33:27;;;;;;;17.48;12.43;;;15.60;63.60;;;;;;4797148;29;20036;-68
2021/03/03 10:35:54;;;;;;;19.50;15.88;;;15.70;63.50;;;;;;4795300;29;20050;-67
2021/03/03 10:38:22;;;;;;;15.85;12.50;;;15.70;63.00;;;;;;4797753;29;20134;-71
2021/03/03 10:40:52;;;;;;;17.65;11.48;;;15.80;63.40;;;;;;4793727;29;20035;-72
2021/03/03 10:43:20;;;;;;;16.77;10.75;;;16.00;64.10;;;;;;4797001;29;20391;-74
2021/03/03 10:45:48;;;;;;;24.08;11.77;;;16.20;63.70;;;;;;4797374;29;20100;-71
2021/03/03 10:48:26;;;;;;;17.38;10.95;;;16.50;62.90;;;;;;4797483;29;20129;-72
2021/03/03 10:50:53;;;;;;;15.82;12.50;;;16.70;62.60;;;;;;4791514;29;20071;-71
2021/03/03 10:53:19;;;;;;;19.77;16.58;;;16.90;61.70;;;;;;4797156;29;20380;-71
2021/03/03 10:55:45;;;;;;;15.38;10.85;;;17.00;60.90;;;;;;4792525;29;20126;-71
2021/03/03 10:58:15;;;;;;;16.40;10.80;;;17.10;61.40;;;;;;4796211;29;20046;-72
2021/03/03 11:00:57;;;;;;;18.48;15.52;;;17.20;63.40;;;;;;4793461;29;20042;-71
2021/03/03 11:03:24;;;;;;;15.18;11.02;;;17.40;62.50;;;;;;4796358;29;20043;-72
2021/03/03 11:06:08;;;;;;;13.30;9.52;;;17.40;62.00;;;;;;4796630;29;20385;-72
2021/03/03 11:08:35;;;;;;;13.25;9.23;;;17.50;61.50;;;;;;4796339;29;20043;-72
2021/03/03 11:11:05;;;;;;;36.30;9.65;;;17.60;60.70;;;;;;4795237;29;20042;-68
2021/03/03 11:13:32;;;;;;;15.20;9.05;;;17.60;60.10;;;;;;4796833;29;20039;-69
2021/03/03 11:15:58;;;;;;;12.40;10.10;;;17.70;60.00;;;;;;4792948;29;20451;-69
2021/03/03 11:18:24;;;;;;;14.80;10.68;;;17.70;59.60;;;;;;4797280;29;20070;-70
2021/03/03 11:20:50;;;;;;;22.35;17.58;;;17.60;59.40;;;;;;4796206;29;20223;-70
2021/03/03 11:23:16;;;;;;;14.80;12.88;;;17.50;58.60;;;;;;4793425;29;20042;-70
2021/03/03 11:25:41;;;;;;;19.23;13.77;;;17.30;58.80;;;;;;4795607;29;20387;-70
2021/03/03 11:28:07;;;;;;;16.60;13.32;;;17.20;59.10;;;;;;4795738;29;20043;-70
2021/03/03 11:30:33;;;;;;;16.75;12.10;;;16.90;59.40;;;;;;4791955;29;20057;-69
2021/03/03 11:32:59;;;;;;;14.50;12.45;;;16.90;59.90;;;;;;4795115;29;20039;-69
2021/03/03 11:35:25;;;;;;;20.20;12.35;;;17.00;60.00;;;;;;4794135;29;20135;-69
2021/03/03 11:37:50;;;;;;;17.67;12.13;;;17.00;59.90;;;;;;4795999;29;20086;-69
2021/03/03 11:40:16;;;;;;;15.75;11.65;;;16.90;59.90;;;;;;4795454;29;20123;-68
2021/03/03 11:42:42;;;;;;;20.15;10.40;;;17.00;60.00;;;;;;4796827;29;20039;-69
2021/03/03 11:45:09;;;;;;;18.00;11.15;;;17.00;59.70;;;;;;4795225;29;20499;-70
2021/03/03 11:47:34;;;;;;;12.23;10.20;;;16.90;59.70;;;;;;4795888;29;20045;-69
2021/03/03 11:50:00;;;;;;;15.50;10.93;;;16.70;59.60;;;;;;4796840;29;20047;-69
2021/03/03 11:52:27;;;;;;;13.70;10.25;;;16.60;59.90;;;;;;4796493;29;20051;-69
2021/03/03 11:54:52;;;;;;;15.35;10.57;;;16.40;59.60;;;;;;4780183;29;20797;-69
2021/03/03 11:57:18;;;;;;;13.80;10.60;;;16.20;59.50;;;;;;4795283;29;20407;-69
2021/03/03 11:59:44;;;;;;;14.27;11.25;;;16.10;59.90;;;;;;4794120;29;20035;-70
2021/03/03 12:02:10;;;;;;;16.17;11.13;;;16.00;60.00;;;;;;4794331;29;20611;-69
2021/03/03 12:04:35;;;;;;;12.23;8.80;;;15.90;59.70;;;;;;4794550;29;20083;-69
2021/03/03 12:07:01;;;;;;;12.10;9.10;;;15.80;60.00;;;;;;4793006;29;20076;-70
2021/03/03 12:09:27;;;;;;;12.88;9.40;;;15.80;60.20;;;;;;4794000;29;22236;-70
2021/03/03 12:11:53;;;;;;;13.18;9.85;;;15.80;60.00;;;;;;4795481;29;20054;-70
2021/03/03 12:14:19;;;;;;;15.85;11.40;;;15.80;59.80;;;;;;4793967;29;20049;-71
2021/03/03 12:16:45;;;;;;;11.10;8.43;;;15.60;59.50;;;;;;4793812;29;20042;-71
2021/03/03 12:19:12;;;;;;;11.73;8.63;;;15.60;60.00;;;;;;4793345;29;20098;-71
2021/03/03 12:21:38;;;;;;;10.02;8.30;;;15.70;60.00;;;;;;4794709;29;20459;-70
2021/03/03 12:24:04;;;;;;;15.43;9.60;;;15.80;60.00;;;;;;4791781;29;20047;-70
2021/03/03 12:26:29;;;;;;;16.88;10.25;;;15.80;59.50;;;;;;4793601;29;20058;-72
2021/03/03 12:28:55;;;;;;;11.65;9.57;;;15.90;58.90;;;;;;4794665;29;20050;-70
2021/03/03 12:31:21;;;;;;;11.70;8.20;;;15.80;58.50;;;;;;4794639;29;20042;-70
2021/03/03 12:33:47;;;;;;;10.23;7.47;;;15.80;58.70;;;;;;4796348;29;20508;-69
2021/03/03 12:36:12;;;;;;;9.77;7.13;;;15.90;59.10;;;;;;4794683;29;20123;-68
2021/03/03 12:38:38;;;;;;;9.30;7.03;;;16.10;59.00;;;;;;4796263;29;20049;-68
2021/03/03 12:41:04;;;;;;;10.00;7.18;;;16.30;58.90;;;;;;4797545;29;20035;-69